KEYO2: Keystone Lake

Data processed at Fri Jan 05 2018 23:03


All information presented herein is the property of the government of the United States of America and may be revised or deleted at any time without prior notice.
Dissemination of this information without the expressed written consent of the Public Affairs Office, Tulsa District U.S. Army Corps of Engineers is strictly prohibited.
These data are gathered electronically and, as presented, have not undergone any form of quality control. These data are not guaranteed to be valid or correct.
Go to home page.
Go to station list.

Upstream stations:

Downstream station:
Previous Day
Next Day
Current Day
    
SHEF ID:       KEYO2     Keystone Lake
STATION TYPE:  Reservoir
Normal Pool:  Bottom =   706.00, Top =   723.00

               PRECIP ELEVATION   STORAGE   TW-ELEV    INFLOW   RELEASE  AIR-TEMP  WIND-DIRWIND-SPEED REL-HUMID SOLAR-RAD   VOLTAGE  BAT-LOAD
                   in        ft     ac-ft        ft       cfs       cfs         F       deg       mph         %      W/m2      volt      volt
              Ccp-Rev   Ccp-Rev   Ccp-Rev   Ccp-Rev  Regi-Rev  Regi-Rev   Ccp-Rev   Ccp-Rev   Ccp-Rev   Ccp-Rev   Ccp-Rev   Ccp-Rev   Ccp-Rev
(US/Central)
01/03 00:00      0.00    719.82    380332    637.60         0         0     20.14    262.60      7.63     58.76      0.00     13.65     13.30
01/03 01:00      0.00    719.82    380332    637.60         0         0     20.14    263.70      7.43     56.74      0.00     13.65     13.30
01/03 02:00      0.00    719.82    380332    637.59         0         0     19.81    268.80      7.15     60.77      0.00     13.64     13.30
01/03 03:00      0.00    719.82    380332    637.59         0         0     19.36    270.60      9.14     55.16      0.00     13.65     13.30
01/03 04:00      0.00    719.85    380800    637.59       462         0     18.93    259.00      4.78     55.64      0.00     13.65     11.77
01/03 05:00      0.00    719.82    380332    637.59       564         0     19.36    267.00      5.62     57.60      0.00     13.65     13.30
01/03 06:00      0.00    719.85    380800    637.59       666         0     20.14    279.90      8.45     59.61      0.00     13.64     13.30
01/03 07:00      0.00    719.79    379864    639.29       767       600     19.15    282.50     12.69     66.33      0.00     13.65     13.30
01/03 08:00      0.00    719.79    379864    642.70       787     12000     19.81    285.50      9.31     68.35      9.00     13.64     13.30
01/03 09:00      0.00    719.71    378616    642.09       345     12000     22.44    291.50      8.71     66.15    171.00     13.64     13.30
01/03 10:00      0.00    719.70    378460    639.24       243       200     26.53    296.10      7.59     61.45    362.00     13.65     13.30
01/03 11:00      0.00    719.71    378616    638.31       142         0     30.47    325.90     10.20     53.69    507.00     13.65     13.30
01/03 12:00      0.00    719.72    378772    637.95       297         0     32.77    315.90     11.68     53.08    591.00     13.65     13.24
01/03 13:00      0.00    719.73    378928    637.80       277         0     33.55    315.50     11.77     48.07    612.00     13.64     13.30
01/03 14:00      0.00    719.68    378148    637.72       257         0     34.99    305.10     12.61     44.65     46.00     13.65     13.30
01/03 15:00      0.00    719.73    378928    637.68       257         0     36.41    306.20      9.77     43.00     61.00     13.66     11.89
01/03 16:00      0.00    719.72    378772    637.65       257         0     37.40    316.10      9.13     44.22    231.00     13.66     13.30
01/03 17:00      0.00    719.70    378460    638.80         0       400     37.17    307.10     10.05     37.80     89.00     13.66     13.30
01/03 18:00      0.00    719.65    377680    642.78         0     11800     36.07    304.50      7.61     45.25      6.00     13.66     13.30
01/03 19:00      0.00    719.58    376588    642.88         0     12200     34.88    288.00      7.30     53.57      0.00     13.66     13.30
01/03 20:00      0.00    719.56    376276    641.97         0     11800     33.44    301.30      7.79     49.59      0.00     13.67     13.30
01/03 21:00      0.00    719.49    375184    639.34         0       200     30.13    336.80      4.74     58.02      0.00     13.66     13.30
01/03 22:00      0.00    719.54    375964    638.37         0         0     27.84     25.90      1.88     62.55      0.00     13.66     13.30
01/03 23:00      0.00    719.52    375652    637.98         0         0     24.64     97.30      2.81     76.28      0.00     13.67     13.30